sensor_id;sensor_type;location;lat;lon;timestamp;temperature;humidity
11615;DHT22;5863;52.832;4.758;2023-03-01T00:00:54;2.60;99.90
11615;DHT22;5863;52.832;4.758;2023-03-01T00:03:21;2.60;99.90
11615;DHT22;5863;52.832;4.758;2023-03-01T00:05:49;2.50;99.90
11615;DHT22;5863;52.832;4.758;2023-03-01T00:08:15;2.40;99.90
11615;DHT22;5863;52.832;4.758;2023-03-01T00:10:42;2.40;99.90
11615;DHT22;5863;52.832;4.758;2023-03-01T00:13:09;2.40;99.90
11615;DHT22;5863;52.832;4.758;2023-03-01T00:15:40;2.40;99.90
11615;DHT22;5863;52.832;4.758;2023-03-01T00:18:07;2.30;99.90
11615;DHT22;5863;52.832;4.758;2023-03-01T00:20:34;2.30;99.90
11615;DHT22;5863;52.832;4.758;2023-03-01T00:23:01;2.20;99.90
11615;DHT22;5863;52.832;4.758;2023-03-01T00:25:28;2.20;99.90
11615;DHT22;5863;52.832;4.758;2023-03-01T00:27:54;2.10;99.90
11615;DHT22;5863;52.832;4.758;2023-03-01T00:30:21;2.10;99.90
11615;DHT22;5863;52.832;4.758;2023-03-01T00:32:49;2.10;99.90
11615;DHT22;5863;52.832;4.758;2023-03-01T00:35:15;2.00;99.90
11615;DHT22;5863;52.832;4.758;2023-03-01T00:37:42;2.00;99.90
11615;DHT22;5863;52.832;4.758;2023-03-01T00:40:10;2.00;99.90
11615;DHT22;5863;52.832;4.758;2023-03-01T00:42:37;1.90;99.90
11615;DHT22;5863;52.832;4.758;2023-03-01T00:45:04;1.90;99.90
11615;DHT22;5863;52.832;4.758;2023-03-01T00:47:33;1.90;99.90
11615;DHT22;5863;52.832;4.758;2023-03-01T00:50:01;1.90;99.90
11615;DHT22;5863;52.832;4.758;2023-03-01T00:52:27;1.90;99.90
11615;DHT22;5863;52.832;4.758;2023-03-01T00:54:54;1.90;99.90
11615;DHT22;5863;52.832;4.758;2023-03-01T00:57:21;1.90;99.90
11615;DHT22;5863;52.832;4.758;2023-03-01T00:59:47;1.90;99.90
11615;DHT22;5863;52.832;4.758;2023-03-01T01:02:14;1.90;99.90
11615;DHT22;5863;52.832;4.758;2023-03-01T01:04:41;1.90;99.90
11615;DHT22;5863;52.832;4.758;2023-03-01T01:07:09;1.90;99.90
11615;DHT22;5863;52.832;4.758;2023-03-01T01:09:36;1.90;99.90
11615;DHT22;5863;52.832;4.758;2023-03-01T01:12:03;1.90;99.90
11615;DHT22;5863;52.832;4.758;2023-03-01T01:14:43;1.90;99.90
11615;DHT22;5863;52.832;4.758;2023-03-01T01:17:09;1.90;99.90
11615;DHT22;5863;52.832;4.758;2023-03-01T01:19:36;1.90;99.90
11615;DHT22;5863;52.832;4.758;2023-03-01T01:25:14;1.90;99.90
11615;DHT22;5863;52.832;4.758;2023-03-01T01:27:41;1.90;99.90
11615;DHT22;5863;52.832;4.758;2023-03-01T01:30:09;1.80;99.90
11615;DHT22;5863;52.832;4.758;2023-03-01T01:32:36;1.80;99.90
11615;DHT22;5863;52.832;4.758;2023-03-01T01:35:04;1.80;99.90
11615;DHT22;5863;52.832;4.758;2023-03-01T01:37:31;1.70;99.90
11615;DHT22;5863;52.832;4.758;2023-03-01T01:39:58;1.70;99.90
11615;DHT22;5863;52.832;4.758;2023-03-01T01:42:27;1.70;99.90
11615;DHT22;5863;52.832;4.758;2023-03-01T01:45:24;1.60;99.90
11615;DHT22;5863;52.832;4.758;2023-03-01T01:47:54;1.60;99.90
11615;DHT22;5863;52.832;4.758;2023-03-01T01:50:23;1.50;99.90
11615;DHT22;5863;52.832;4.758;2023-03-01T01:52:51;1.60;99.90
11615;DHT22;5863;52.832;4.758;2023-03-01T01:55:20;1.50;99.90
11615;DHT22;5863;52.832;4.758;2023-03-01T01:57:53;1.50;99.90
11615;DHT22;5863;52.832;4.758;2023-03-01T02:00:23;1.50;99.90
11615;DHT22;5863;52.832;4.758;2023-03-01T02:02:55;1.50;99.90
11615;DHT22;5863;52.832;4.758;2023-03-01T02:05:28;1.50;99.90
11615;DHT22;5863;52.832;4.758;2023-03-01T02:07:57;1.50;99.90
11615;DHT22;5863;52.832;4.758;2023-03-01T02:10:25;1.40;99.90
11615;DHT22;5863;52.832;4.758;2023-03-01T02:12:55;1.40;99.90
11615;DHT22;5863;52.832;4.758;2023-03-01T02:15:23;1.40;99.90
11615;DHT22;5863;52.832;4.758;2023-03-01T02:17:52;1.30;99.90
11615;DHT22;5863;52.832;4.758;2023-03-01T02:20:23;1.30;99.90
11615;DHT22;5863;52.832;4.758;2023-03-01T02:22:53;1.30;99.90
11615;DHT22;5863;52.832;4.758;2023-03-01T02:25:27;1.30;99.90
11615;DHT22;5863;52.832;4.758;2023-03-01T02:27:59;1.20;99.90
11615;DHT22;5863;52.832;4.758;2023-03-01T02:30:41;1.20;99.90
11615;DHT22;5863;52.832;4.758;2023-03-01T02:33:30;1.20;99.90
11615;DHT22;5863;52.832;4.758;2023-03-01T02:35:59;1.20;99.90
11615;DHT22;5863;52.832;4.758;2023-03-01T02:38:28;1.20;99.90
11615;DHT22;5863;52.832;4.758;2023-03-01T02:40:55;1.20;99.90
11615;DHT22;5863;52.832;4.758;2023-03-01T02:43:25;1.20;99.90
11615;DHT22;5863;52.832;4.758;2023-03-01T02:45:58;1.20;99.90
11615;DHT22;5863;52.832;4.758;2023-03-01T02:48:25;1.20;99.90
11615;DHT22;5863;52.832;4.758;2023-03-01T02:51:02;1.20;99.90
11615;DHT22;5863;52.832;4.758;2023-03-01T02:53:37;1.10;99.90
11615;DHT22;5863;52.832;4.758;2023-03-01T02:56:05;1.10;99.90
11615;DHT22;5863;52.832;4.758;2023-03-01T02:58:38;1.10;99.90
11615;DHT22;5863;52.832;4.758;2023-03-01T03:01:12;1.10;99.90
11615;DHT22;5863;52.832;4.758;2023-03-01T03:03:40;1.10;99.90
11615;DHT22;5863;52.832;4.758;2023-03-01T03:06:24;1.10;99.90
11615;DHT22;5863;52.832;4.758;2023-03-01T03:08:51;1.10;99.90
11615;DHT22;5863;52.832;4.758;2023-03-01T03:11:18;1.00;99.90
11615;DHT22;5863;52.832;4.758;2023-03-01T03:13:44;1.00;99.90
11615;DHT22;5863;52.832;4.758;2023-03-01T03:16:14;0.90;99.90
11615;DHT22;5863;52.832;4.758;2023-03-01T03:18:41;0.90;99.90
11615;DHT22;5863;52.832;4.758;2023-03-01T03:21:08;0.90;99.90
11615;DHT22;5863;52.832;4.758;2023-03-01T03:23:36;0.90;99.90
11615;DHT22;5863;52.832;4.758;2023-03-01T03:26:03;0.90;99.90
11615;DHT22;5863;52.832;4.758;2023-03-01T03:28:31;0.80;99.90
11615;DHT22;5863;52.832;4.758;2023-03-01T03:30:58;0.80;99.90
11615;DHT22;5863;52.832;4.758;2023-03-01T03:33:30;0.80;99.90
11615;DHT22;5863;52.832;4.758;2023-03-01T03:35:57;0.80;99.90
11615;DHT22;5863;52.832;4.758;2023-03-01T03:38:26;0.70;99.90
11615;DHT22;5863;52.832;4.758;2023-03-01T03:41:00;0.80;99.90
11615;DHT22;5863;52.832;4.758;2023-03-01T03:43:27;0.70;99.90
11615;DHT22;5863;52.832;4.758;2023-03-01T03:45:54;0.70;99.90
11615;DHT22;5863;52.832;4.758;2023-03-01T03:48:23;0.70;99.90
11615;DHT22;5863;52.832;4.758;2023-03-01T03:50:52;0.70;99.90
11615;DHT22;5863;52.832;4.758;2023-03-01T03:53:20;0.70;99.90
11615;DHT22;5863;52.832;4.758;2023-03-01T03:55:54;0.70;99.90
11615;DHT22;5863;52.832;4.758;2023-03-01T03:58:23;0.70;99.90
11615;DHT22;5863;52.832;4.758;2023-03-01T04:00:53;0.70;99.90
11615;DHT22;5863;52.832;4.758;2023-03-01T04:03:21;0.70;99.90
11615;DHT22;5863;52.832;4.758;2023-03-01T04:05:48;0.70;99.90
11615;DHT22;5863;52.832;4.758;2023-03-01T04:08:17;0.70;99.90
11615;DHT22;5863;52.832;4.758;2023-03-01T04:10:47;0.70;99.90
11615;DHT22;5863;52.832;4.758;2023-03-01T04:13:17;0.70;99.90
11615;DHT22;5863;52.832;4.758;2023-03-01T04:15:45;0.70;99.90
11615;DHT22;5863;52.832;4.758;2023-03-01T04:18:13;0.70;99.90
11615;DHT22;5863;52.832;4.758;2023-03-01T04:20:40;0.80;99.90
11615;DHT22;5863;52.832;4.758;2023-03-01T04:23:10;0.90;99.90
11615;DHT22;5863;52.832;4.758;2023-03-01T04:25:42;0.80;99.90
11615;DHT22;5863;52.832;4.758;2023-03-01T04:28:09;0.80;99.90
11615;DHT22;5863;52.832;4.758;2023-03-01T04:30:37;0.90;99.90
11615;DHT22;5863;52.832;4.758;2023-03-01T04:33:10;0.90;99.90
11615;DHT22;5863;52.832;4.758;2023-03-01T04:35:37;0.90;99.90
11615;DHT22;5863;52.832;4.758;2023-03-01T04:38:05;1.00;99.90
11615;DHT22;5863;52.832;4.758;2023-03-01T04:40:32;1.00;99.90
11615;DHT22;5863;52.832;4.758;2023-03-01T04:43:01;1.00;99.90
11615;DHT22;5863;52.832;4.758;2023-03-01T04:45:27;1.00;99.90
11615;DHT22;5863;52.832;4.758;2023-03-01T04:47:54;1.00;99.90
11615;DHT22;5863;52.832;4.758;2023-03-01T04:50:23;1.00;99.90
11615;DHT22;5863;52.832;4.758;2023-03-01T04:53:01;1.00;99.90
11615;DHT22;5863;52.832;4.758;2023-03-01T04:55:28;1.00;99.90
11615;DHT22;5863;52.832;4.758;2023-03-01T04:57:55;1.10;99.90
11615;DHT22;5863;52.832;4.758;2023-03-01T05:00:23;1.20;99.90
11615;DHT22;5863;52.832;4.758;2023-03-01T05:03:03;1.20;99.90
11615;DHT22;5863;52.832;4.758;2023-03-01T05:05:31;1.30;99.90
11615;DHT22;5863;52.832;4.758;2023-03-01T05:08:00;1.20;99.90
11615;DHT22;5863;52.832;4.758;2023-03-01T05:10:29;1.20;99.90
11615;DHT22;5863;52.832;4.758;2023-03-01T05:12:57;1.20;99.90
11615;DHT22;5863;52.832;4.758;2023-03-01T05:15:26;1.20;99.90
11615;DHT22;5863;52.832;4.758;2023-03-01T05:17:54;1.20;99.90
11615;DHT22;5863;52.832;4.758;2023-03-01T05:20:34;1.20;99.90
11615;DHT22;5863;52.832;4.758;2023-03-01T05:23:01;1.20;99.90
11615;DHT22;5863;52.832;4.758;2023-03-01T05:25:30;1.20;99.90
11615;DHT22;5863;52.832;4.758;2023-03-01T05:27:58;1.20;99.90
11615;DHT22;5863;52.832;4.758;2023-03-01T05:30:32;1.20;99.90
11615;DHT22;5863;52.832;4.758;2023-03-01T05:32:59;1.20;99.90
11615;DHT22;5863;52.832;4.758;2023-03-01T05:35:26;1.20;99.90
11615;DHT22;5863;52.832;4.758;2023-03-01T05:38:04;1.20;99.90
11615;DHT22;5863;52.832;4.758;2023-03-01T05:40:33;1.20;99.90
11615;DHT22;5863;52.832;4.758;2023-03-01T05:43:00;1.20;99.90
11615;DHT22;5863;52.832;4.758;2023-03-01T05:45:31;1.20;99.90
11615;DHT22;5863;52.832;4.758;2023-03-01T05:47:59;1.20;99.90
11615;DHT22;5863;52.832;4.758;2023-03-01T05:50:32;1.20;99.90
11615;DHT22;5863;52.832;4.758;2023-03-01T05:53:01;1.30;99.90
11615;DHT22;5863;52.832;4.758;2023-03-01T05:55:29;1.30;99.90
11615;DHT22;5863;52.832;4.758;2023-03-01T05:57:58;1.30;99.90
11615;DHT22;5863;52.832;4.758;2023-03-01T06:00:25;1.20;99.90
11615;DHT22;5863;52.832;4.758;2023-03-01T06:02:53;1.30;99.90
11615;DHT22;5863;52.832;4.758;2023-03-01T06:05:20;1.30;99.90
11615;DHT22;5863;52.832;4.758;2023-03-01T06:07:47;1.30;99.90
11615;DHT22;5863;52.832;4.758;2023-03-01T06:10:21;1.30;99.90
11615;DHT22;5863;52.832;4.758;2023-03-01T06:12:47;1.30;99.90
11615;DHT22;5863;52.832;4.758;2023-03-01T06:15:17;1.30;99.90
11615;DHT22;5863;52.832;4.758;2023-03-01T06:17:45;1.30;99.90
11615;DHT22;5863;52.832;4.758;2023-03-01T06:20:15;1.30;99.90
11615;DHT22;5863;52.832;4.758;2023-03-01T06:22:42;1.30;99.90
11615;DHT22;5863;52.832;4.758;2023-03-01T06:25:10;1.30;99.90
11615;DHT22;5863;52.832;4.758;2023-03-01T06:27:37;1.30;99.90
11615;DHT22;5863;52.832;4.758;2023-03-01T06:30:08;1.30;99.90
11615;DHT22;5863;52.832;4.758;2023-03-01T06:32:35;1.30;99.90
11615;DHT22;5863;52.832;4.758;2023-03-01T06:35:02;1.30;99.90
11615;DHT22;5863;52.832;4.758;2023-03-01T06:37:30;1.30;99.90
11615;DHT22;5863;52.832;4.758;2023-03-01T06:39:56;1.40;99.90
11615;DHT22;5863;52.832;4.758;2023-03-01T06:42:23;1.40;99.90
11615;DHT22;5863;52.832;4.758;2023-03-01T06:44:50;1.50;99.90
11615;DHT22;5863;52.832;4.758;2023-03-01T06:47:17;1.60;99.90
11615;DHT22;5863;52.832;4.758;2023-03-01T06:49:44;1.60;99.90
11615;DHT22;5863;52.832;4.758;2023-03-01T06:52:12;1.70;99.90
11615;DHT22;5863;52.832;4.758;2023-03-01T06:54:40;1.70;99.90
11615;DHT22;5863;52.832;4.758;2023-03-01T06:57:06;1.70;99.90
11615;DHT22;5863;52.832;4.758;2023-03-01T06:59:33;1.80;99.90
11615;DHT22;5863;52.832;4.758;2023-03-01T07:02:00;1.80;99.90
11615;DHT22;5863;52.832;4.758;2023-03-01T07:04:26;1.90;99.90
11615;DHT22;5863;52.832;4.758;2023-03-01T07:06:59;2.00;99.90
11615;DHT22;5863;52.832;4.758;2023-03-01T07:09:26;2.00;99.90
11615;DHT22;5863;52.832;4.758;2023-03-01T07:11:54;2.10;99.90
11615;DHT22;5863;52.832;4.758;2023-03-01T07:14:22;2.20;99.90
11615;DHT22;5863;52.832;4.758;2023-03-01T07:16:49;2.30;99.90
11615;DHT22;5863;52.832;4.758;2023-03-01T07:19:16;2.40;99.90
11615;DHT22;5863;52.832;4.758;2023-03-01T07:21:43;2.50;99.90
11615;DHT22;5863;52.832;4.758;2023-03-01T07:24:10;2.60;99.90
11615;DHT22;5863;52.832;4.758;2023-03-01T07:26:36;2.70;99.90
11615;DHT22;5863;52.832;4.758;2023-03-01T07:29:11;2.80;99.90
11615;DHT22;5863;52.832;4.758;2023-03-01T07:31:37;2.70;99.90
11615;DHT22;5863;52.832;4.758;2023-03-01T07:34:04;2.70;99.90
11615;DHT22;5863;52.832;4.758;2023-03-01T07:36:31;2.70;99.90
11615;DHT22;5863;52.832;4.758;2023-03-01T07:38:58;2.70;99.90
11615;DHT22;5863;52.832;4.758;2023-03-01T07:41:27;2.80;99.90
11615;DHT22;5863;52.832;4.758;2023-03-01T07:43:54;2.80;99.90
11615;DHT22;5863;52.832;4.758;2023-03-01T07:46:22;2.90;99.90
11615;DHT22;5863;52.832;4.758;2023-03-01T07:48:49;2.90;99.90
11615;DHT22;5863;52.832;4.758;2023-03-01T07:51:15;3.00;99.90
11615;DHT22;5863;52.832;4.758;2023-03-01T07:53:46;3.00;99.90
11615;DHT22;5863;52.832;4.758;2023-03-01T07:56:15;3.10;99.90
11615;DHT22;5863;52.832;4.758;2023-03-01T07:58:44;3.10;99.90
11615;DHT22;5863;52.832;4.758;2023-03-01T08:01:13;3.30;99.90
11615;DHT22;5863;52.832;4.758;2023-03-01T08:03:41;3.30;99.90
11615;DHT22;5863;52.832;4.758;2023-03-01T08:06:10;3.40;99.90
11615;DHT22;5863;52.832;4.758;2023-03-01T08:08:38;3.40;99.90
11615;DHT22;5863;52.832;4.758;2023-03-01T08:11:07;3.40;99.90
11615;DHT22;5863;52.832;4.758;2023-03-01T08:13:34;3.50;99.90
11615;DHT22;5863;52.832;4.758;2023-03-01T08:16:01;3.60;99.90
11615;DHT22;5863;52.832;4.758;2023-03-01T08:18:28;3.70;99.90
11615;DHT22;5863;52.832;4.758;2023-03-01T08:21:01;3.90;99.90
11615;DHT22;5863;52.832;4.758;2023-03-01T08:23:28;3.90;99.90
11615;DHT22;5863;52.832;4.758;2023-03-01T08:26:02;4.00;99.90
11615;DHT22;5863;52.832;4.758;2023-03-01T08:28:29;4.20;99.90
11615;DHT22;5863;52.832;4.758;2023-03-01T08:30:56;4.30;99.90
11615;DHT22;5863;52.832;4.758;2023-03-01T08:33:22;4.60;99.90
11615;DHT22;5863;52.832;4.758;2023-03-01T08:35:49;4.90;99.90
11615;DHT22;5863;52.832;4.758;2023-03-01T08:38:17;5.40;99.90
11615;DHT22;5863;52.832;4.758;2023-03-01T08:40:44;5.70;99.90
11615;DHT22;5863;52.832;4.758;2023-03-01T08:43:11;5.90;99.90
11615;DHT22;5863;52.832;4.758;2023-03-01T08:45:38;6.00;99.90
11615;DHT22;5863;52.832;4.758;2023-03-01T08:48:04;6.20;99.90
11615;DHT22;5863;52.832;4.758;2023-03-01T08:50:31;6.40;99.90
11615;DHT22;5863;52.832;4.758;2023-03-01T08:52:58;6.50;99.90
11615;DHT22;5863;52.832;4.758;2023-03-01T08:55:26;6.60;99.90
11615;DHT22;5863;52.832;4.758;2023-03-01T08:57:53;6.70;99.90
11615;DHT22;5863;52.832;4.758;2023-03-01T09:00:20;6.70;99.90
11615;DHT22;5863;52.832;4.758;2023-03-01T09:02:47;6.70;99.90
11615;DHT22;5863;52.832;4.758;2023-03-01T09:05:14;6.80;99.90
11615;DHT22;5863;52.832;4.758;2023-03-01T09:07:40;6.80;99.90
11615;DHT22;5863;52.832;4.758;2023-03-01T09:10:09;6.80;99.90
11615;DHT22;5863;52.832;4.758;2023-03-01T09:12:37;6.70;99.90
11615;DHT22;5863;52.832;4.758;2023-03-01T09:15:04;6.70;99.90
11615;DHT22;5863;52.832;4.758;2023-03-01T09:17:31;6.80;99.90
11615;DHT22;5863;52.832;4.758;2023-03-01T09:19:58;6.90;99.90
11615;DHT22;5863;52.832;4.758;2023-03-01T09:22:25;6.80;99.90
11615;DHT22;5863;52.832;4.758;2023-03-01T09:24:51;6.80;99.90
11615;DHT22;5863;52.832;4.758;2023-03-01T09:27:18;6.80;99.90
11615;DHT22;5863;52.832;4.758;2023-03-01T09:29:47;6.90;99.90
11615;DHT22;5863;52.832;4.758;2023-03-01T09:32:14;6.90;99.90
11615;DHT22;5863;52.832;4.758;2023-03-01T09:34:40;6.80;99.90
11615;DHT22;5863;52.832;4.758;2023-03-01T09:37:21;6.80;99.90
11615;DHT22;5863;52.832;4.758;2023-03-01T09:39:48;6.90;99.90
11615;DHT22;5863;52.832;4.758;2023-03-01T09:42:15;7.10;99.90
11615;DHT22;5863;52.832;4.758;2023-03-01T09:44:47;7.20;99.90
11615;DHT22;5863;52.832;4.758;2023-03-01T09:47:18;7.40;99.90
11615;DHT22;5863;52.832;4.758;2023-03-01T09:49:57;7.40;99.90
11615;DHT22;5863;52.832;4.758;2023-03-01T09:52:30;7.40;99.90
11615;DHT22;5863;52.832;4.758;2023-03-01T09:55:00;7.40;99.90
11615;DHT22;5863;52.832;4.758;2023-03-01T09:57:33;7.40;99.90
11615;DHT22;5863;52.832;4.758;2023-03-01T10:00:13;7.30;99.90
11615;DHT22;5863;52.832;4.758;2023-03-01T10:02:44;7.40;99.90
11615;DHT22;5863;52.832;4.758;2023-03-01T10:05:24;7.40;99.90
11615;DHT22;5863;52.832;4.758;2023-03-01T10:07:57;7.30;99.90
11615;DHT22;5863;52.832;4.758;2023-03-01T10:10:34;7.40;99.90
11615;DHT22;5863;52.832;4.758;2023-03-01T10:13:04;7.40;99.90
11615;DHT22;5863;52.832;4.758;2023-03-01T10:15:41;7.50;99.90
11615;DHT22;5863;52.832;4.758;2023-03-01T10:18:13;7.60;99.90
11615;DHT22;5863;52.832;4.758;2023-03-01T10:20:46;7.70;99.90
11615;DHT22;5863;52.832;4.758;2023-03-01T10:23:16;7.80;99.90
11615;DHT22;5863;52.832;4.758;2023-03-01T10:25:49;7.80;99.90
11615;DHT22;5863;52.832;4.758;2023-03-01T10:28:26;7.80;99.90
11615;DHT22;5863;52.832;4.758;2023-03-01T10:30:57;7.70;99.90
11615;DHT22;5863;52.832;4.758;2023-03-01T10:33:27;7.50;99.90
11615;DHT22;5863;52.832;4.758;2023-03-01T10:35:55;7.50;99.90
11615;DHT22;5863;52.832;4.758;2023-03-01T10:38:22;7.40;99.90
11615;DHT22;5863;52.832;4.758;2023-03-01T10:40:53;7.60;99.90
11615;DHT22;5863;52.832;4.758;2023-03-01T10:43:20;7.60;99.90
11615;DHT22;5863;52.832;4.758;2023-03-01T10:45:47;7.60;99.90
11615;DHT22;5863;52.832;4.758;2023-03-01T10:48:19;7.70;99.90
11615;DHT22;5863;52.832;4.758;2023-03-01T10:50:50;7.80;99.90
11615;DHT22;5863;52.832;4.758;2023-03-01T10:53:23;7.80;99.90
11615;DHT22;5863;52.832;4.758;2023-03-01T10:56:01;7.90;99.90
11615;DHT22;5863;52.832;4.758;2023-03-01T10:58:29;7.90;99.90
11615;DHT22;5863;52.832;4.758;2023-03-01T11:00:57;7.90;99.90
11615;DHT22;5863;52.832;4.758;2023-03-01T11:03:31;8.10;99.90
11615;DHT22;5863;52.832;4.758;2023-03-01T11:06:01;8.10;99.90
11615;DHT22;5863;52.832;4.758;2023-03-01T11:08:40;8.20;99.90
11615;DHT22;5863;52.832;4.758;2023-03-01T11:11:14;8.30;99.90
11615;DHT22;5863;52.832;4.758;2023-03-01T11:13:55;8.30;99.90
11615;DHT22;5863;52.832;4.758;2023-03-01T11:16:31;8.40;99.90
11615;DHT22;5863;52.832;4.758;2023-03-01T11:19:12;8.50;99.90
11615;DHT22;5863;52.832;4.758;2023-03-01T11:21:41;8.50;99.90
11615;DHT22;5863;52.832;4.758;2023-03-01T11:24:12;8.50;99.90
11615;DHT22;5863;52.832;4.758;2023-03-01T11:26:42;8.40;99.90
11615;DHT22;5863;52.832;4.758;2023-03-01T11:29:18;8.40;99.90
11615;DHT22;5863;52.832;4.758;2023-03-01T11:31:48;8.30;99.90
11615;DHT22;5863;52.832;4.758;2023-03-01T11:34:27;8.30;99.90
11615;DHT22;5863;52.832;4.758;2023-03-01T11:36:59;8.30;99.90
11615;DHT22;5863;52.832;4.758;2023-03-01T11:39:31;8.40;99.90
11615;DHT22;5863;52.832;4.758;2023-03-01T11:42:05;8.50;99.90
11615;DHT22;5863;52.832;4.758;2023-03-01T11:44:35;8.60;99.90
11615;DHT22;5863;52.832;4.758;2023-03-01T11:47:14;8.50;99.90
11615;DHT22;5863;52.832;4.758;2023-03-01T11:50:15;8.40;99.90
11615;DHT22;5863;52.832;4.758;2023-03-01T11:53:18;8.40;99.90
11615;DHT22;5863;52.832;4.758;2023-03-01T11:55:58;8.30;99.90
11615;DHT22;5863;52.832;4.758;2023-03-01T11:58:51;8.20;99.90
11615;DHT22;5863;52.832;4.758;2023-03-01T12:01:42;8.20;99.90
11615;DHT22;5863;52.832;4.758;2023-03-01T12:04:26;8.10;99.90
11615;DHT22;5863;52.832;4.758;2023-03-01T12:06:59;8.00;99.90
11615;DHT22;5863;52.832;4.758;2023-03-01T12:09:41;8.00;99.90
11615;DHT22;5863;52.832;4.758;2023-03-01T12:12:27;8.00;99.90
11615;DHT22;5863;52.832;4.758;2023-03-01T12:18:08;8.20;99.90
11615;DHT22;5863;52.832;4.758;2023-03-01T12:20:46;8.30;99.90
11615;DHT22;5863;52.832;4.758;2023-03-01T12:23:34;8.30;99.90
11615;DHT22;5863;52.832;4.758;2023-03-01T12:26:08;8.40;99.90
11615;DHT22;5863;52.832;4.758;2023-03-01T12:28:59;8.30;99.90
11615;DHT22;5863;52.832;4.758;2023-03-01T12:35:00;8.30;99.90
11615;DHT22;5863;52.832;4.758;2023-03-01T12:37:38;8.40;99.90
11615;DHT22;5863;52.832;4.758;2023-03-01T12:43:39;8.40;99.90
11615;DHT22;5863;52.832;4.758;2023-03-01T12:46:19;8.50;99.90
11615;DHT22;5863;52.832;4.758;2023-03-01T12:48:53;8.50;99.90
11615;DHT22;5863;52.832;4.758;2023-03-01T12:51:24;8.60;99.90
11615;DHT22;5863;52.832;4.758;2023-03-01T12:53:55;8.60;99.90
11615;DHT22;5863;52.832;4.758;2023-03-01T12:56:25;8.60;99.90
11615;DHT22;5863;52.832;4.758;2023-03-01T12:59:01;8.60;99.90
11615;DHT22;5863;52.832;4.758;2023-03-01T13:01:36;8.60;99.90
11615;DHT22;5863;52.832;4.758;2023-03-01T13:04:17;8.60;99.90
11615;DHT22;5863;52.832;4.758;2023-03-01T13:10:21;8.60;99.90
11615;DHT22;5863;52.832;4.758;2023-03-01T13:13:02;8.60;99.90
11615;DHT22;5863;52.832;4.758;2023-03-01T13:15:39;8.60;99.90
11615;DHT22;5863;52.832;4.758;2023-03-01T13:18:28;8.60;99.90
11615;DHT22;5863;52.832;4.758;2023-03-01T13:20:56;8.60;99.90
11615;DHT22;5863;52.832;4.758;2023-03-01T13:23:29;8.60;99.90
11615;DHT22;5863;52.832;4.758;2023-03-01T13:26:17;8.60;99.80
11615;DHT22;5863;52.832;4.758;2023-03-01T13:28:52;8.50;99.90
11615;DHT22;5863;52.832;4.758;2023-03-01T13:34:59;8.50;99.90
11615;DHT22;5863;52.832;4.758;2023-03-01T13:37:28;8.50;99.80
11615;DHT22;5863;52.832;4.758;2023-03-01T13:39:57;8.50;99.90
11615;DHT22;5863;52.832;4.758;2023-03-01T13:42:36;8.50;99.90
11615;DHT22;5863;52.832;4.758;2023-03-01T13:45:19;8.50;99.60
11615;DHT22;5863;52.832;4.758;2023-03-01T13:47:49;8.40;99.00
11615;DHT22;5863;52.832;4.758;2023-03-01T13:50:20;8.40;98.40
11615;DHT22;5863;52.832;4.758;2023-03-01T13:52:52;8.30;98.30
11615;DHT22;5863;52.832;4.758;2023-03-01T13:55:23;8.30;98.90
11615;DHT22;5863;52.832;4.758;2023-03-01T13:57:53;8.30;99.10
11615;DHT22;5863;52.832;4.758;2023-03-01T14:00:31;8.20;98.60
11615;DHT22;5863;52.832;4.758;2023-03-01T14:03:05;8.20;99.70
11615;DHT22;5863;52.832;4.758;2023-03-01T14:05:36;8.30;99.80
11615;DHT22;5863;52.832;4.758;2023-03-01T14:08:04;8.30;99.50
11615;DHT22;5863;52.832;4.758;2023-03-01T14:10:36;8.30;99.40
11615;DHT22;5863;52.832;4.758;2023-03-01T14:13:20;8.30;99.80
11615;DHT22;5863;52.832;4.758;2023-03-01T14:19:17;8.30;99.90
11615;DHT22;5863;52.832;4.758;2023-03-01T14:21:47;8.30;99.90
11615;DHT22;5863;52.832;4.758;2023-03-01T14:24:21;8.30;99.90
11615;DHT22;5863;52.832;4.758;2023-03-01T14:26:49;8.30;99.90
11615;DHT22;5863;52.832;4.758;2023-03-01T14:29:27;8.20;99.90
11615;DHT22;5863;52.832;4.758;2023-03-01T14:32:17;8.20;99.90
11615;DHT22;5863;52.832;4.758;2023-03-01T14:34:47;8.10;99.90
11615;DHT22;5863;52.832;4.758;2023-03-01T14:37:25;8.10;99.90
11615;DHT22;5863;52.832;4.758;2023-03-01T14:39:52;8.00;99.90
11615;DHT22;5863;52.832;4.758;2023-03-01T14:42:20;8.00;99.90
11615;DHT22;5863;52.832;4.758;2023-03-01T14:44:50;8.10;99.90
11615;DHT22;5863;52.832;4.758;2023-03-01T14:47:25;8.10;99.90
11615;DHT22;5863;52.832;4.758;2023-03-01T14:49:57;8.00;99.90
11615;DHT22;5863;52.832;4.758;2023-03-01T14:52:32;8.00;99.90
11615;DHT22;5863;52.832;4.758;2023-03-01T14:55:03;8.10;99.90
11615;DHT22;5863;52.832;4.758;2023-03-01T14:57:30;8.10;99.90
11615;DHT22;5863;52.832;4.758;2023-03-01T15:00:00;8.10;99.90
11615;DHT22;5863;52.832;4.758;2023-03-01T15:02:30;8.10;99.90
11615;DHT22;5863;52.832;4.758;2023-03-01T15:05:00;8.10;99.90
11615;DHT22;5863;52.832;4.758;2023-03-01T15:07:33;8.00;99.90
11615;DHT22;5863;52.832;4.758;2023-03-01T15:10:01;8.10;99.90
11615;DHT22;5863;52.832;4.758;2023-03-01T15:12:39;8.00;99.90
11615;DHT22;5863;52.832;4.758;2023-03-01T15:15:35;8.00;99.90
11615;DHT22;5863;52.832;4.758;2023-03-01T15:18:13;8.00;99.90
11615;DHT22;5863;52.832;4.758;2023-03-01T15:20:40;7.90;99.90
11615;DHT22;5863;52.832;4.758;2023-03-01T15:23:23;7.90;99.90
11615;DHT22;5863;52.832;4.758;2023-03-01T15:25:51;7.90;99.90
11615;DHT22;5863;52.832;4.758;2023-03-01T15:28:27;7.90;99.90
11615;DHT22;5863;52.832;4.758;2023-03-01T15:30:56;7.90;99.90
11615;DHT22;5863;52.832;4.758;2023-03-01T15:33:35;7.90;99.90
11615;DHT22;5863;52.832;4.758;2023-03-01T15:36:29;7.90;99.90
11615;DHT22;5863;52.832;4.758;2023-03-01T15:38:55;7.90;99.90
11615;DHT22;5863;52.832;4.758;2023-03-01T15:43:53;7.90;99.90
11615;DHT22;5863;52.832;4.758;2023-03-01T15:46:26;7.80;99.90
11615;DHT22;5863;52.832;4.758;2023-03-01T15:48:56;7.80;99.90
11615;DHT22;5863;52.832;4.758;2023-03-01T15:51:37;7.70;99.90
11615;DHT22;5863;52.832;4.758;2023-03-01T15:54:21;7.70;99.90
11615;DHT22;5863;52.832;4.758;2023-03-01T15:56:49;7.80;99.90
11615;DHT22;5863;52.832;4.758;2023-03-01T15:59:18;7.70;99.90
11615;DHT22;5863;52.832;4.758;2023-03-01T16:01:45;7.70;99.90
11615;DHT22;5863;52.832;4.758;2023-03-01T16:04:15;7.60;99.90
11615;DHT22;5863;52.832;4.758;2023-03-01T16:06:55;7.60;99.90
11615;DHT22;5863;52.832;4.758;2023-03-01T16:09:24;7.60;99.90
11615;DHT22;5863;52.832;4.758;2023-03-01T16:11:53;7.60;99.90
11615;DHT22;5863;52.832;4.758;2023-03-01T16:14:20;7.60;99.90
11615;DHT22;5863;52.832;4.758;2023-03-01T16:16:47;7.60;99.90
11615;DHT22;5863;52.832;4.758;2023-03-01T16:19:14;7.60;99.90
11615;DHT22;5863;52.832;4.758;2023-03-01T16:21:42;7.60;99.90
11615;DHT22;5863;52.832;4.758;2023-03-01T16:24:12;7.60;99.90
11615;DHT22;5863;52.832;4.758;2023-03-01T16:26:40;7.60;99.90
11615;DHT22;5863;52.832;4.758;2023-03-01T16:29:07;7.50;99.90
11615;DHT22;5863;52.832;4.758;2023-03-01T16:31:34;7.50;99.90
11615;DHT22;5863;52.832;4.758;2023-03-01T16:34:00;7.50;99.90
11615;DHT22;5863;52.832;4.758;2023-03-01T16:36:27;7.50;99.90
11615;DHT22;5863;52.832;4.758;2023-03-01T16:38:54;7.40;99.90
11615;DHT22;5863;52.832;4.758;2023-03-01T16:41:24;7.40;99.90
11615;DHT22;5863;52.832;4.758;2023-03-01T16:43:52;7.40;99.90
11615;DHT22;5863;52.832;4.758;2023-03-01T16:46:20;7.30;99.90
11615;DHT22;5863;52.832;4.758;2023-03-01T16:48:48;7.30;99.90
11615;DHT22;5863;52.832;4.758;2023-03-01T16:51:15;7.20;99.90